Portada
METAR-TAF:

METAR-TAF

Aeropuertos :

Base Aérea de Beja

Beja, Portugal

latitud: 38-04-40N, longitud: 007-55-57W, altitud: 193 m

Observación

El informe se hizo hace 26 minutos, a las 13:00 UTC
Viento 9 kt del norte-noreste
Temperatura 24°C
Humedad 36%
Presión 1015 hPa
Visibilidad 10 km o más
Escasas nubes a una altura de 3500 ft

METAR: LPBJ 261300Z 03009KT 9999 FEW035 24/08 Q1015

Hora: 14:26 (13:26 UTC)

Pronóstico

El informe se hizo hace 2 horas y 25 minutos, a las 11:01 UTC
Pronóstico válido del 26 a las 12 UTC al 27 a las 12 UTC
Viento 5 kt del norte
Visibilidad 10 km o más
sin nubes por debajo de 1500 m y sin presencia de cumulonimbus.
Temporalmente
del 26 a las 18 UTC al 26 a las 22 UTC
Viento 12 kt del noroeste

TAF: LPBJ 261101Z 2612/2712 01005KT CAVOK TEMPO 2618/2622 32012KT

Observaciones y pronósticos meteorológicos de más de 4000 aeropuertos (mensajes METAR y TAF).

Los puntos amarillos y rojos representan las estaciones disponibles.

Ponga el ratón en el punto deseado para ver el nombre de la estación.

Haga clic para ver las observaciones y los pronósticos meteorológicos.

Para cambiar el mapa : haga clic en los botones verdes con una cruz de color negro para hacer un zoom, en el botón verde con un guión para alejar o en las flechas verdes para mapas adyacentes.


METAR-TAF: